createdAt,value
2023-02-27T00:01:34.610Z,17.60
2023-02-27T00:04:04.150Z,18.00
2023-02-27T00:06:32.611Z,22.20
2023-02-27T00:09:01.006Z,17.40
2023-02-27T00:11:30.040Z,16.90
2023-02-27T00:13:59.412Z,14.90
2023-02-27T00:16:33.148Z,15.00
2023-02-27T00:19:04.615Z,14.20
2023-02-27T00:21:32.708Z,14.30
2023-02-27T00:24:10.930Z,15.50
2023-02-27T00:26:39.133Z,15.50
2023-02-27T00:29:07.961Z,14.70
2023-02-27T00:31:36.754Z,15.90
2023-02-27T00:34:05.101Z,15.50
2023-02-27T00:36:33.616Z,15.60
2023-02-27T00:39:01.974Z,16.30
2023-02-27T00:41:30.986Z,15.00
2023-02-27T00:44:02.035Z,18.10
2023-02-27T00:46:31.039Z,15.90
2023-02-27T00:48:59.446Z,14.60
2023-02-27T00:51:28.364Z,16.70
2023-02-27T00:53:57.323Z,17.50
2023-02-27T00:56:25.925Z,15.60
2023-02-27T00:58:54.200Z,16.70
2023-02-27T01:01:23.292Z,17.50
2023-02-27T01:03:52.216Z,16.80
2023-02-27T01:06:21.217Z,19.30
2023-02-27T01:08:50.000Z,21.00
2023-02-27T01:11:22.626Z,22.10
2023-02-27T01:13:51.121Z,18.10
2023-02-27T01:16:19.604Z,16.80
2023-02-27T01:18:48.692Z,23.10
2023-02-27T01:21:17.695Z,19.90
2023-02-27T01:23:51.522Z,18.00
2023-02-27T01:26:20.942Z,21.70
2023-02-27T01:28:49.210Z,17.20
2023-02-27T01:31:18.130Z,19.40
2023-02-27T01:33:46.409Z,16.90
2023-02-27T01:36:16.864Z,19.80
2023-02-27T01:38:45.231Z,22.50
2023-02-27T01:41:15.779Z,20.00
2023-02-27T01:44:13.868Z,19.40
2023-02-27T01:46:45.567Z,20.70
2023-02-27T01:49:21.039Z,20.40
2023-02-27T01:52:05.942Z,19.40
2023-02-27T01:54:39.881Z,19.40
2023-02-27T01:57:08.081Z,25.30
2023-02-27T01:59:39.756Z,19.60
2023-02-27T02:02:11.790Z,19.20
2023-02-27T02:04:40.102Z,17.60
2023-02-27T02:07:10.281Z,19.70
2023-02-27T02:09:45.409Z,17.80
2023-02-27T02:12:14.402Z,17.70
2023-02-27T02:14:44.530Z,18.10
2023-02-27T02:17:48.195Z,18.00
2023-02-27T02:20:45.843Z,17.90
2023-02-27T02:23:35.906Z,17.30
2023-02-27T02:26:27.795Z,16.70
2023-02-27T02:29:10.818Z,17.80
2023-02-27T02:31:53.944Z,16.00
2023-02-27T02:34:52.250Z,15.70
2023-02-27T02:37:59.926Z,18.20
2023-02-27T02:40:35.361Z,19.30
2023-02-27T02:43:12.733Z,14.80
2023-02-27T02:46:13.690Z,19.40
2023-02-27T02:49:33.144Z,20.00
2023-02-27T02:52:02.864Z,14.40
2023-02-27T02:54:46.565Z,19.10
2023-02-27T02:57:21.617Z,19.20
2023-02-27T02:59:57.497Z,11.20
2023-02-27T03:05:13.834Z,13.80
2023-02-27T03:07:47.946Z,10.10
2023-02-27T03:10:19.947Z,11.80
2023-02-27T03:13:09.394Z,11.40
2023-02-27T03:15:48.075Z,10.70
2023-02-27T03:18:20.790Z,13.70
2023-02-27T03:21:02.538Z,10.20
2023-02-27T03:23:34.902Z,11.70
2023-02-27T03:26:04.937Z,16.90
2023-02-27T03:28:36.001Z,13.20
2023-02-27T03:31:11.726Z,8.90
2023-02-27T03:33:47.637Z,16.40
2023-02-27T03:36:37.234Z,14.60
2023-02-27T03:39:28.837Z,16.90
2023-02-27T03:42:01.407Z,18.20
2023-02-27T03:45:16.756Z,17.60
2023-02-27T03:47:45.335Z,13.20
2023-02-27T03:50:14.040Z,16.60
2023-02-27T03:52:43.054Z,21.70
2023-02-27T03:55:14.194Z,17.60
2023-02-27T03:57:42.685Z,12.60
2023-02-27T04:00:17.204Z,13.00
2023-02-27T04:02:50.567Z,12.90
2023-02-27T04:05:21.427Z,11.30
2023-02-27T04:08:09.202Z,10.40
2023-02-27T04:10:55.090Z,9.10
2023-02-27T04:13:53.922Z,8.90
2023-02-27T04:16:34.014Z,8.30
2023-02-27T04:19:44.219Z,9.20
2023-02-27T04:22:22.449Z,9.00
2023-02-27T04:24:56.798Z,11.60
2023-02-27T04:27:34.417Z,8.90
2023-02-27T04:30:25.320Z,13.30
2023-02-27T04:33:14.668Z,10.60
2023-02-27T04:36:05.991Z,6.30
2023-02-27T04:39:01.188Z,8.70
2023-02-27T04:41:45.589Z,8.90
2023-02-27T04:44:14.087Z,9.90
2023-02-27T04:46:43.090Z,9.90
2023-02-27T04:49:33.121Z,17.30
2023-02-27T04:52:06.851Z,11.50
2023-02-27T04:55:07.552Z,11.90
2023-02-27T04:58:00.890Z,8.20
2023-02-27T05:03:19.653Z,10.80
2023-02-27T05:05:48.140Z,9.40
2023-02-27T05:08:19.740Z,16.20
2023-02-27T05:10:53.855Z,15.40
2023-02-27T05:13:35.199Z,15.10
2023-02-27T05:16:20.353Z,15.50
2023-02-27T05:18:49.124Z,14.60
2023-02-27T05:21:23.266Z,14.10
2023-02-27T05:24:06.864Z,18.40
2023-02-27T05:27:06.374Z,15.10
2023-02-27T05:29:59.298Z,20.10
2023-02-27T05:32:36.176Z,188.70
2023-02-27T05:35:16.986Z,166.30
2023-02-27T05:38:03.433Z,47.20
2023-02-27T05:40:38.226Z,48.60
2023-02-27T05:43:09.709Z,50.70
2023-02-27T05:45:39.373Z,15.60
2023-02-27T05:48:26.164Z,15.30
2023-02-27T05:50:54.369Z,27.90
2023-02-27T05:53:25.239Z,33.50
2023-02-27T05:55:54.472Z,49.30
2023-02-27T05:58:31.134Z,65.10
2023-02-27T06:01:01.177Z,20.70
2023-02-27T06:03:30.238Z,118.90
2023-02-27T06:05:59.333Z,106.10
2023-02-27T06:08:27.839Z,56.10
2023-02-27T06:11:00.374Z,16.90
2023-02-27T06:13:29.704Z,45.70
2023-02-27T06:15:57.928Z,20.70
2023-02-27T06:18:26.176Z,24.10
2023-02-27T06:20:55.215Z,30.70
2023-02-27T06:23:25.542Z,44.50
2023-02-27T06:25:54.541Z,78.30
2023-02-27T06:28:22.871Z,24.80
2023-02-27T06:30:55.801Z,93.70
2023-02-27T06:33:26.071Z,90.40
2023-02-27T06:35:55.863Z,95.40
2023-02-27T06:38:25.217Z,30.10
2023-02-27T06:40:54.030Z,28.00
2023-02-27T06:43:23.282Z,42.50
2023-02-27T06:45:55.468Z,118.60
2023-02-27T06:48:23.944Z,60.80
2023-02-27T06:50:53.723Z,90.00
2023-02-27T06:53:23.342Z,32.90
2023-02-27T06:55:52.301Z,27.30
2023-02-27T06:58:21.312Z,53.00
2023-02-27T07:00:49.558Z,34.40
2023-02-27T07:03:17.866Z,24.70
2023-02-27T07:05:49.985Z,45.90
2023-02-27T07:08:19.497Z,15.90
2023-02-27T07:10:49.209Z,29.00
2023-02-27T07:13:19.682Z,18.50
2023-02-27T07:15:49.171Z,28.40
2023-02-27T07:18:17.326Z,48.40
2023-02-27T07:20:45.725Z,61.10
2023-02-27T07:23:14.702Z,33.90
2023-02-27T07:25:42.908Z,31.80
2023-02-27T07:28:11.567Z,17.10
2023-02-27T07:30:40.838Z,25.70
2023-02-27T07:33:09.364Z,36.90
2023-02-27T07:35:38.015Z,29.60
2023-02-27T07:38:06.966Z,30.60
2023-02-27T07:40:35.566Z,17.40
2023-02-27T07:43:05.740Z,47.60
2023-02-27T07:45:34.075Z,19.10
2023-02-27T07:48:02.283Z,50.50
2023-02-27T07:50:30.903Z,64.80
2023-02-27T07:52:59.704Z,28.90
2023-02-27T07:55:27.885Z,30.10
2023-02-27T07:58:02.741Z,35.50
2023-02-27T08:00:32.360Z,51.70
2023-02-27T08:03:00.892Z,33.10
2023-02-27T08:05:30.200Z,13.40
2023-02-27T08:07:58.406Z,16.30
2023-02-27T08:10:27.780Z,14.50
2023-02-27T08:12:56.611Z,12.50
2023-02-27T08:15:24.804Z,12.90
2023-02-27T08:17:53.090Z,13.40
2023-02-27T08:20:22.855Z,14.30
2023-02-27T08:22:51.122Z,12.20
2023-02-27T08:25:20.452Z,15.90
2023-02-27T08:27:48.651Z,16.70
2023-02-27T08:30:17.166Z,13.20
2023-02-27T08:32:46.183Z,12.40
2023-02-27T08:35:14.675Z,12.80
2023-02-27T08:37:42.969Z,12.70
2023-02-27T08:40:11.877Z,12.20
2023-02-27T08:42:40.392Z,14.30
2023-02-27T08:45:11.892Z,15.80
2023-02-27T08:47:42.908Z,11.10
2023-02-27T08:50:14.883Z,10.30
2023-02-27T08:52:43.187Z,10.60
2023-02-27T08:55:11.638Z,8.20
2023-02-27T08:57:40.993Z,9.10
2023-02-27T09:00:10.783Z,10.80
2023-02-27T09:02:39.214Z,10.70
2023-02-27T09:05:08.100Z,9.40
2023-02-27T09:07:36.384Z,9.80
2023-02-27T09:10:07.250Z,9.10
2023-02-27T09:12:37.626Z,10.20
2023-02-27T09:15:11.624Z,9.20
2023-02-27T09:17:42.002Z,11.40
2023-02-27T09:20:12.327Z,9.60
2023-02-27T09:22:41.483Z,8.00
2023-02-27T09:25:12.285Z,9.80
2023-02-27T09:27:41.308Z,9.80
2023-02-27T09:30:11.628Z,10.20
2023-02-27T09:32:40.011Z,9.10
2023-02-27T09:35:09.469Z,9.40
2023-02-27T09:37:37.881Z,10.20
2023-02-27T09:40:07.714Z,9.40
2023-02-27T09:42:38.481Z,11.10
2023-02-27T09:45:07.584Z,9.40
2023-02-27T09:47:38.143Z,8.80
2023-02-27T09:50:17.846Z,9.50
2023-02-27T09:52:46.660Z,10.20
2023-02-27T09:55:19.361Z,9.20
2023-02-27T09:58:02.180Z,9.90
2023-02-27T10:00:39.436Z,10.40
2023-02-27T10:03:43.482Z,9.50
2023-02-27T10:06:37.994Z,9.30
2023-02-27T10:09:19.244Z,8.90
2023-02-27T10:11:53.641Z,10.10
2023-02-27T10:14:38.463Z,9.50
2023-02-27T10:17:22.959Z,11.20
2023-02-27T10:19:52.340Z,9.30
2023-02-27T10:22:26.838Z,8.30
2023-02-27T10:25:31.781Z,8.30
2023-02-27T10:28:09.117Z,9.40
2023-02-27T10:30:37.215Z,9.80
2023-02-27T10:33:10.710Z,8.30
2023-02-27T10:35:40.115Z,9.30
2023-02-27T10:38:12.322Z,9.60
2023-02-27T10:40:40.981Z,9.80
2023-02-27T10:43:09.143Z,9.00
2023-02-27T10:45:38.931Z,9.50
2023-02-27T10:48:14.953Z,9.50
2023-02-27T10:50:45.290Z,16.10
2023-02-27T10:53:25.357Z,32.30
2023-02-27T10:56:07.113Z,16.90
2023-02-27T10:58:35.813Z,12.70
2023-02-27T11:01:06.168Z,26.70
2023-02-27T11:03:41.066Z,18.20
2023-02-27T11:06:25.105Z,9.80
2023-02-27T11:09:12.820Z,12.50
2023-02-27T11:11:42.655Z,13.60
2023-02-27T11:14:28.104Z,35.00
2023-02-27T11:16:58.419Z,19.20
2023-02-27T11:19:35.262Z,14.00
2023-02-27T11:22:16.282Z,17.20
2023-02-27T11:24:49.515Z,13.90
2023-02-27T11:27:29.579Z,14.00
2023-02-27T11:30:00.422Z,53.60
2023-02-27T11:32:36.268Z,36.70
2023-02-27T11:35:05.665Z,24.70
2023-02-27T11:37:34.896Z,29.40
2023-02-27T11:40:09.581Z,16.90
2023-02-27T11:42:42.021Z,48.40
2023-02-27T11:46:11.942Z,48.20
2023-02-27T11:48:20.834Z,67.30
2023-02-27T11:50:52.317Z,60.40
2023-02-27T11:53:43.923Z,68.00
2023-02-27T11:56:27.665Z,49.90
2023-02-27T12:01:27.902Z,44.50
2023-02-27T12:04:01.841Z,40.90
2023-02-27T12:06:38.168Z,32.40
2023-02-27T12:09:15.982Z,17.10
2023-02-27T12:11:44.612Z,32.10
2023-02-27T12:14:21.304Z,18.20
2023-02-27T12:17:10.178Z,24.40
2023-02-27T12:19:42.115Z,30.50
2023-02-27T12:22:22.758Z,27.40
2023-02-27T12:24:53.257Z,21.30
2023-02-27T12:27:38.467Z,16.40
2023-02-27T12:30:15.404Z,18.80
2023-02-27T12:33:02.465Z,27.50
2023-02-27T12:35:33.195Z,18.30
2023-02-27T12:38:01.793Z,19.10
2023-02-27T12:40:37.703Z,19.80
2023-02-27T12:43:14.868Z,25.70
2023-02-27T12:45:46.313Z,19.30
2023-02-27T12:48:36.901Z,17.00
2023-02-27T12:51:17.371Z,16.60
2023-02-27T12:53:58.333Z,22.10
2023-02-27T12:56:47.915Z,15.80
2023-02-27T12:59:29.565Z,22.90
2023-02-27T13:02:16.108Z,22.50
2023-02-27T13:04:46.225Z,22.10
2023-02-27T13:07:26.767Z,18.90
2023-02-27T13:10:01.259Z,17.20
2023-02-27T13:12:39.014Z,16.50
2023-02-27T13:15:48.637Z,15.90
2023-02-27T13:18:42.077Z,22.00
2023-02-27T13:21:17.526Z,16.40
2023-02-27T13:23:49.427Z,16.40
2023-02-27T13:26:25.884Z,17.30
2023-02-27T13:28:55.241Z,15.80
2023-02-27T13:31:38.614Z,11.90
2023-02-27T13:34:18.881Z,10.50
2023-02-27T13:36:51.278Z,9.80
2023-02-27T13:39:41.567Z,10.20
2023-02-27T13:42:30.212Z,11.00
2023-02-27T13:45:06.344Z,10.70
2023-02-27T13:47:37.730Z,11.30
2023-02-27T13:50:18.441Z,10.50
2023-02-27T13:52:47.027Z,10.40
2023-02-27T13:55:28.646Z,11.30
2023-02-27T13:58:00.033Z,12.10
2023-02-27T14:00:32.993Z,11.90
2023-02-27T14:03:21.573Z,9.30
2023-02-27T14:05:51.068Z,7.90
2023-02-27T14:08:29.266Z,8.30
2023-02-27T14:11:02.802Z,9.00
2023-02-27T14:13:54.713Z,5.80
2023-02-27T14:16:38.286Z,6.50
2023-02-27T14:19:15.700Z,7.00
2023-02-27T14:22:01.174Z,8.30
2023-02-27T14:24:42.896Z,6.40
2023-02-27T14:27:19.379Z,6.30
2023-02-27T14:29:48.003Z,6.40
2023-02-27T14:32:22.173Z,5.70
2023-02-27T14:34:51.239Z,5.90
2023-02-27T14:37:23.411Z,5.90
2023-02-27T14:39:55.335Z,6.80
2023-02-27T14:43:03.614Z,6.60
2023-02-27T14:45:34.052Z,7.80
2023-02-27T14:48:02.272Z,7.80
2023-02-27T14:50:34.190Z,6.70
2023-02-27T14:53:06.409Z,6.70
2023-02-27T14:55:37.212Z,5.80
2023-02-27T14:58:26.466Z,5.90
2023-02-27T15:01:06.597Z,5.50
2023-02-27T15:03:45.178Z,8.10
2023-02-27T15:06:28.411Z,8.00
2023-02-27T15:08:57.393Z,7.70
2023-02-27T15:11:25.971Z,7.70
2023-02-27T15:14:02.567Z,15.90
2023-02-27T15:16:39.293Z,18.60
2023-02-27T15:19:18.284Z,14.90
2023-02-27T15:24:31.365Z,15.20
2023-02-27T15:27:03.690Z,9.00
2023-02-27T15:29:42.476Z,11.10
2023-02-27T15:32:27.021Z,9.70
2023-02-27T15:34:59.436Z,8.20
2023-02-27T15:37:29.913Z,10.50
2023-02-27T15:39:58.723Z,11.00
2023-02-27T15:42:37.647Z,10.60
2023-02-27T15:45:07.113Z,9.50
2023-02-27T15:47:35.243Z,8.20
2023-02-27T15:50:10.691Z,8.60
2023-02-27T15:52:50.543Z,9.70
2023-02-27T15:55:25.712Z,11.10
2023-02-27T15:58:03.051Z,9.00
2023-02-27T16:00:32.608Z,10.30
2023-02-27T16:03:00.901Z,19.50
2023-02-27T16:05:36.412Z,16.50
2023-02-27T16:08:05.831Z,37.40
2023-02-27T16:10:40.931Z,16.50
2023-02-27T16:13:27.751Z,17.10
2023-02-27T16:16:21.391Z,12.80
2023-02-27T16:18:57.314Z,14.40
2023-02-27T16:21:26.660Z,11.90
2023-02-27T16:23:55.096Z,10.50
2023-02-27T16:26:32.893Z,10.30
2023-02-27T16:29:17.934Z,10.40
2023-02-27T16:31:47.779Z,14.00
2023-02-27T16:34:20.663Z,18.70
2023-02-27T16:36:54.434Z,22.40
2023-02-27T16:39:22.460Z,17.40
2023-02-27T16:41:53.232Z,13.90
2023-02-27T16:44:22.574Z,12.70
2023-02-27T16:46:52.343Z,13.10
2023-02-27T16:49:22.431Z,17.40
2023-02-27T16:51:50.618Z,18.10
2023-02-27T16:54:19.063Z,19.40
2023-02-27T16:56:47.688Z,18.10
2023-02-27T16:59:36.184Z,16.20
2023-02-27T17:02:06.781Z,14.80
2023-02-27T17:04:36.194Z,15.60
2023-02-27T17:07:06.786Z,11.30
2023-02-27T17:09:35.693Z,12.80
2023-02-27T17:12:04.488Z,12.00
2023-02-27T17:14:32.636Z,11.50
2023-02-27T17:17:01.146Z,13.00
2023-02-27T17:19:29.775Z,13.20
2023-02-27T17:21:59.194Z,13.60
2023-02-27T17:24:27.902Z,15.60
2023-02-27T17:26:56.234Z,15.00
2023-02-27T17:29:28.799Z,12.50
2023-02-27T17:31:57.563Z,13.50
2023-02-27T17:34:25.866Z,12.80
2023-02-27T17:36:54.794Z,13.20
2023-02-27T17:39:22.911Z,14.30
2023-02-27T17:41:52.904Z,13.50
2023-02-27T17:44:21.638Z,15.50
2023-02-27T17:46:50.264Z,15.90
2023-02-27T17:49:18.574Z,18.00
2023-02-27T17:51:47.187Z,15.90
2023-02-27T17:54:15.567Z,17.20
2023-02-27T17:56:43.856Z,21.50
2023-02-27T17:59:12.165Z,19.50
2023-02-27T18:01:40.257Z,22.00
2023-02-27T18:04:25.773Z,21.40
2023-02-27T18:06:54.012Z,17.20
2023-02-27T18:09:22.896Z,35.10
2023-02-27T18:11:52.330Z,32.50
2023-02-27T18:14:20.565Z,92.90
2023-02-27T18:16:49.869Z,30.10
2023-02-27T18:19:18.553Z,28.20
2023-02-27T18:21:47.308Z,26.60
2023-02-27T18:24:15.887Z,24.10
2023-02-27T18:26:44.082Z,33.20
2023-02-27T18:29:14.096Z,29.90
2023-02-27T18:31:44.365Z,34.70
2023-02-27T18:34:12.504Z,30.50
2023-02-27T18:36:40.615Z,18.30
2023-02-27T18:39:08.993Z,18.60
2023-02-27T18:41:39.057Z,19.90
2023-02-27T18:44:09.204Z,19.10
2023-02-27T18:46:38.112Z,15.50
2023-02-27T18:49:06.523Z,18.50
2023-02-27T18:51:34.994Z,16.40
2023-02-27T18:54:05.160Z,22.50
2023-02-27T18:59:06.676Z,19.90
2023-02-27T19:01:36.664Z,19.90
2023-02-27T19:04:06.317Z,23.90
2023-02-27T19:06:40.548Z,38.70
2023-02-27T19:09:10.762Z,45.30
2023-02-27T19:11:38.832Z,25.30
2023-02-27T19:14:12.143Z,19.30
2023-02-27T19:16:42.211Z,20.90
2023-02-27T19:19:12.008Z,21.50
2023-02-27T19:21:41.004Z,18.80
2023-02-27T19:24:10.230Z,19.20
2023-02-27T19:26:38.671Z,17.20
2023-02-27T19:29:12.721Z,14.40
2023-02-27T19:31:41.716Z,15.10
2023-02-27T19:34:10.662Z,19.60
2023-02-27T19:36:42.589Z,20.00
2023-02-27T19:39:11.325Z,25.30
2023-02-27T19:41:39.602Z,17.20
2023-02-27T19:44:08.446Z,17.90
2023-02-27T19:46:36.769Z,18.80
2023-02-27T19:49:05.442Z,17.40
2023-02-27T19:51:39.037Z,15.00
2023-02-27T19:54:07.054Z,16.20
2023-02-27T19:56:35.001Z,14.00
2023-02-27T19:59:03.890Z,14.10
2023-02-27T20:01:33.898Z,14.40
2023-02-27T20:06:34.082Z,13.50
2023-02-27T20:09:02.293Z,15.80
2023-02-27T20:11:31.367Z,14.90
2023-02-27T20:13:59.988Z,16.10
2023-02-27T20:16:30.615Z,16.90
2023-02-27T20:18:59.363Z,16.70
2023-02-27T20:21:29.560Z,43.40
2023-02-27T20:24:00.816Z,58.70
2023-02-27T20:26:37.037Z,55.70
2023-02-27T20:29:13.668Z,43.20
2023-02-27T20:31:43.948Z,55.60
2023-02-27T20:34:13.020Z,24.10
2023-02-27T20:36:41.487Z,44.60
2023-02-27T20:39:12.314Z,24.90
2023-02-27T20:41:41.222Z,22.40
2023-02-27T20:44:11.586Z,14.40
2023-02-27T20:46:40.954Z,16.40
2023-02-27T20:49:15.747Z,17.90
2023-02-27T20:51:45.001Z,11.90
2023-02-27T20:54:16.381Z,13.00
2023-02-27T20:56:44.520Z,13.10
2023-02-27T20:59:14.592Z,13.80
2023-02-27T21:01:51.527Z,14.70
2023-02-27T21:04:20.456Z,11.40
2023-02-27T21:06:50.242Z,13.50
2023-02-27T21:09:18.973Z,15.30
2023-02-27T21:11:47.148Z,13.30
2023-02-27T21:14:15.863Z,14.30
2023-02-27T21:16:44.279Z,13.50
2023-02-27T21:19:12.594Z,14.10
2023-02-27T21:21:40.991Z,17.90
2023-02-27T21:24:09.493Z,21.90
2023-02-27T21:26:38.703Z,20.90
2023-02-27T21:29:12.161Z,25.00
2023-02-27T21:31:41.717Z,19.00
2023-02-27T21:34:12.600Z,14.40
2023-02-27T21:36:42.497Z,24.20
2023-02-27T21:39:30.470Z,20.30
2023-02-27T21:42:01.539Z,17.80
2023-02-27T21:44:29.928Z,17.80
2023-02-27T21:47:10.443Z,22.40
2023-02-27T21:49:39.382Z,11.00
2023-02-27T21:52:08.534Z,10.80
2023-02-27T21:54:38.868Z,18.00
2023-02-27T21:57:07.000Z,17.10
2023-02-27T21:59:35.065Z,29.90
2023-02-27T22:02:03.413Z,34.70
2023-02-27T22:04:33.015Z,24.90
2023-02-27T22:07:01.155Z,24.60
2023-02-27T22:09:32.503Z,26.60
2023-02-27T22:12:01.880Z,30.60
2023-02-27T22:14:30.126Z,26.60
2023-02-27T22:16:59.152Z,30.30
2023-02-27T22:19:27.743Z,33.10
2023-02-27T22:21:55.944Z,38.30
2023-02-27T22:24:24.930Z,32.90
2023-02-27T22:26:53.252Z,22.40
2023-02-27T22:29:21.465Z,17.00
2023-02-27T22:31:50.338Z,20.60
2023-02-27T22:34:18.981Z,12.00
2023-02-27T22:36:52.940Z,13.10
2023-02-27T22:39:27.308Z,18.30
2023-02-27T22:41:56.886Z,15.90
2023-02-27T22:44:25.352Z,14.20
2023-02-27T22:46:54.700Z,20.10
2023-02-27T22:49:23.676Z,22.80
2023-02-27T22:51:52.343Z,22.10
2023-02-27T22:54:21.704Z,19.50
2023-02-27T22:56:52.761Z,56.80
2023-02-27T22:59:30.524Z,45.90
2023-02-27T23:01:59.317Z,53.40
2023-02-27T23:04:27.510Z,26.20
2023-02-27T23:06:56.431Z,19.60
2023-02-27T23:09:26.165Z,24.20
2023-02-27T23:11:55.105Z,24.20
2023-02-27T23:14:23.557Z,21.60
2023-02-27T23:16:51.846Z,18.00
2023-02-27T23:19:21.105Z,20.00
2023-02-27T23:21:54.741Z,33.20
2023-02-27T23:24:25.081Z,20.10
2023-02-27T23:26:53.283Z,21.70
2023-02-27T23:29:22.013Z,22.30
2023-02-27T23:31:50.605Z,20.30
2023-02-27T23:34:19.854Z,23.10
2023-02-27T23:36:48.610Z,18.80
2023-02-27T23:39:16.899Z,18.40
2023-02-27T23:41:45.193Z,22.60
2023-02-27T23:44:13.390Z,20.90
2023-02-27T23:46:42.497Z,19.90
2023-02-27T23:49:10.796Z,22.70
2023-02-27T23:51:39.509Z,21.00
2023-02-27T23:54:07.803Z,18.50
2023-02-27T23:56:39.323Z,12.50
2023-02-27T23:59:07.597Z,26.60
